GVAC/SID METAR and TAF weather

Enter ICAO airport designator
Station Type Date Time Source
GVAC METAR 2023/01/30 12:00 UTC NOAA

GVAC 301200Z 07016KT 9999 SCT014 BKN200 23/13 Q1016 NOSIG


Station Type Date Time Source
GVAC Decoded METAR 2023/01/30 12:00 UTC NOAA

Sal, Cape Verde (GVAC) 16-44N 022-57W 55M
Jan 30, 2023 - 07:00 AM EST / 2023.01.30 1200 UTC
Wind: from the ENE (070 degrees) at 18 MPH (16 KT):0
Visibility: greater than 7 mile(s):0
Sky conditions: mostly cloudy
Temperature: 73 F (23 C)
Dew Point: 55 F (13 C)
Relative Humidity: 53%
Pressure (altimeter): 30.00 in. Hg (1016 hPa)
ob: GVAC 301200Z 07016KT 9999 SCT014 BKN200 23/13 Q1016 NOSIG
cycle: 12

Station Type Date Time Source
GVAC TAF 2023/01/30 12:57 UTC NOAA

TAF TAF GVAC 301100Z 3012/3118 05016KT 9999 BKN014

Example: see airport list